Time;durP1;ratioP1;P1;durP2;ratioP2;P2;SDS_P1;SDS_P2;PMS_P1;PMS_P2;Temp;Humidity;BMP_temperature;BMP_pressure;BME280_temperature;BME280_humidity;BME280_pressure;Samples;Min_cycle;Max_cycle;Signal;HPM_P1;HPM_P2
2023/10/28 00:00:48;;;;;;;40.65;15.02;;;7.40;99.90;;;;;;4983993;28;20129;-57
2023/10/28 00:03:15;;;;;;;38.53;16.42;;;7.40;99.90;;;;;;4976664;28;20042;-58
2023/10/28 00:05:43;;;;;;;44.25;16.65;;;7.30;99.90;;;;;;4982995;28;20047;-58
2023/10/28 00:08:11;;;;;;;43.92;16.25;;;7.20;99.90;;;;;;4991008;28;20487;-58
2023/10/28 00:10:40;;;;;;;44.58;16.95;;;7.20;99.90;;;;;;4986988;28;20053;-58
2023/10/28 00:13:08;;;;;;;53.65;16.83;;;7.10;99.90;;;;;;4990980;28;20069;-58
2023/10/28 00:15:36;;;;;;;44.22;16.65;;;7.10;99.90;;;;;;4975635;28;20042;-59
2023/10/28 00:18:04;;;;;;;40.40;16.27;;;7.10;99.90;;;;;;4976601;28;20494;-58
2023/10/28 00:20:32;;;;;;;48.90;17.30;;;7.10;99.90;;;;;;4984747;28;20050;-58
2023/10/28 00:23:00;;;;;;;38.83;15.95;;;7.10;99.90;;;;;;4988584;28;20063;-59
2023/10/28 00:25:31;;;;;;;39.75;14.65;;;7.20;99.90;;;;;;4984175;28;20391;-59
2023/10/28 00:28:00;;;;;;;46.40;16.30;;;7.20;99.90;;;;;;4978917;28;20051;-58
2023/10/28 00:30:27;;;;;;;45.80;16.20;;;7.20;99.90;;;;;;4969891;28;20430;-59
2023/10/28 00:32:58;;;;;;;47.05;16.77;;;7.20;99.90;;;;;;4984751;28;20077;-59
2023/10/28 00:35:28;;;;;;;50.55;17.20;;;7.30;99.90;;;;;;4974333;28;20043;-59
2023/10/28 00:37:56;;;;;;;50.88;17.58;;;7.30;99.90;;;;;;4975611;28;20051;-59
2023/10/28 00:40:25;;;;;;;55.20;16.90;;;7.40;99.90;;;;;;4972284;28;20495;-59
2023/10/28 00:42:53;;;;;;;50.33;17.55;;;7.40;99.90;;;;;;4975329;28;20054;-59
2023/10/28 00:45:21;;;;;;;53.60;18.02;;;7.40;99.90;;;;;;4973139;28;20059;-59
2023/10/28 00:47:49;;;;;;;42.22;16.17;;;7.50;99.90;;;;;;4989812;28;20062;-59
2023/10/28 00:50:16;;;;;;;42.03;15.93;;;7.50;99.90;;;;;;4988211;28;20068;-60
2023/10/28 00:52:47;;;;;;;34.00;15.65;;;7.50;99.90;;;;;;4990259;28;20195;-60
2023/10/28 00:55:16;;;;;;;35.20;15.57;;;7.50;99.90;;;;;;4990240;28;20054;-59
2023/10/28 00:57:45;;;;;;;44.10;15.18;;;7.40;99.90;;;;;;4986079;28;20046;-60
2023/10/28 01:00:14;;;;;;;48.67;15.93;;;7.40;99.90;;;;;;4989760;28;20055;-59
2023/10/28 01:02:43;;;;;;;36.80;14.98;;;7.40;99.90;;;;;;4987439;28;20458;-59
2023/10/28 01:05:16;;;;;;;41.23;14.93;;;7.40;99.90;;;;;;4974135;28;20054;-59
2023/10/28 01:07:45;;;;;;;42.95;14.38;;;7.40;99.90;;;;;;4975240;28;20054;-59
2023/10/28 01:10:31;;;;;;;34.97;14.52;;;7.40;99.90;;;;;;4988857;28;20482;-59
2023/10/28 01:12:59;;;;;;;41.83;15.77;;;7.40;99.90;;;;;;4973708;28;20054;-60
2023/10/28 01:15:27;;;;;;;42.45;14.73;;;7.40;99.90;;;;;;4989683;28;20045;-59
2023/10/28 01:17:57;;;;;;;41.95;14.98;;;7.40;99.90;;;;;;4982405;28;20051;-59
2023/10/28 01:20:25;;;;;;;51.75;14.77;;;7.40;99.90;;;;;;4976220;28;20054;-59
2023/10/28 01:22:53;;;;;;;41.65;16.00;;;7.50;99.90;;;;;;4971291;28;20050;-59
2023/10/28 01:25:21;;;;;;;46.25;17.67;;;7.60;99.90;;;;;;4982417;28;20103;-59
2023/10/28 01:27:49;;;;;;;42.72;16.92;;;7.70;99.90;;;;;;4969361;28;20407;-59
2023/10/28 01:30:17;;;;;;;49.83;17.73;;;7.70;99.90;;;;;;4978597;28;20042;-60
2023/10/28 01:32:45;;;;;;;59.65;17.92;;;7.80;99.90;;;;;;4980549;28;20038;-60
2023/10/28 01:35:13;;;;;;;60.45;18.17;;;7.90;99.90;;;;;;4980285;28;20065;-59
2023/10/28 01:37:44;;;;;;;44.97;16.83;;;7.90;99.90;;;;;;4974512;28;20407;-59
2023/10/28 01:40:13;;;;;;;44.78;16.20;;;7.90;99.90;;;;;;4989310;28;20042;-59
2023/10/28 01:42:44;;;;;;;38.25;15.77;;;8.00;99.90;;;;;;4975751;28;20042;-58
2023/10/28 01:45:15;;;;;;;46.88;16.27;;;8.00;99.90;;;;;;4971718;28;20050;-59
2023/10/28 01:47:44;;;;;;;46.97;15.68;;;8.10;99.90;;;;;;4977061;28;20057;-60
2023/10/28 01:50:12;;;;;;;38.17;14.13;;;8.10;99.90;;;;;;4979602;28;20042;-59
2023/10/28 01:52:42;;;;;;;43.63;16.00;;;8.20;99.90;;;;;;4985769;28;20046;-59
2023/10/28 01:55:11;;;;;;;;;;;8.10;99.90;;;;;;4980006;28;20130;-59
2023/10/28 01:57:40;;;;;;;38.45;14.27;;;8.20;99.90;;;;;;4972399;28;20297;-59
2023/10/28 02:00:12;;;;;;;41.53;14.63;;;8.20;99.90;;;;;;4986310;28;20053;-59
2023/10/28 02:02:45;;;;;;;40.88;13.65;;;8.20;99.90;;;;;;4956667;28;20046;-60
2023/10/28 02:05:15;;;;;;;44.60;15.13;;;8.30;99.90;;;;;;4974448;28;20047;-60
2023/10/28 02:07:43;;;;;;;36.78;14.60;;;8.30;99.90;;;;;;5003135;28;20060;-58
2023/10/28 02:10:11;;;;;;;40.35;15.52;;;8.30;99.90;;;;;;5001005;28;20059;-58
2023/10/28 02:12:39;;;;;;;40.70;13.98;;;8.40;99.90;;;;;;5009564;28;20045;-59
2023/10/28 02:15:08;;;;;;;41.33;14.65;;;8.40;99.90;;;;;;4996886;28;20050;-57
2023/10/28 02:17:38;;;;;;;50.75;15.27;;;8.40;99.90;;;;;;4992118;28;20046;-59
2023/10/28 02:20:06;;;;;;;36.30;14.80;;;8.40;99.90;;;;;;4990863;28;20046;-57
2023/10/28 02:22:35;;;;;;;38.67;14.32;;;8.40;99.90;;;;;;4987794;28;20046;-58
2023/10/28 02:25:04;;;;;;;36.03;14.70;;;8.50;99.90;;;;;;5010232;28;20052;-58
2023/10/28 02:27:33;;;;;;;34.63;14.52;;;8.50;99.90;;;;;;4972468;28;20051;-58
2023/10/28 02:30:00;;;;;;;40.08;15.10;;;8.50;99.90;;;;;;4972734;28;20043;-58
2023/10/28 02:32:28;;;;;;;35.88;14.88;;;8.50;99.90;;;;;;4982642;28;20046;-58
2023/10/28 02:34:59;;;;;;;35.58;14.52;;;8.50;99.90;;;;;;4988998;28;20046;-58
2023/10/28 02:37:27;;;;;;;36.28;14.45;;;8.60;99.90;;;;;;4990763;28;20397;-59
2023/10/28 02:39:56;;;;;;;39.55;14.75;;;8.60;99.90;;;;;;4988655;28;20038;-59
2023/10/28 02:42:23;;;;;;;37.35;14.77;;;8.60;99.90;;;;;;4970015;28;20055;-58
2023/10/28 02:44:51;;;;;;;37.53;15.10;;;8.60;99.90;;;;;;4972222;28;20391;-59
2023/10/28 02:47:19;;;;;;;41.00;14.85;;;8.60;99.90;;;;;;4984779;28;20042;-59
2023/10/28 02:49:46;;;;;;;40.78;16.33;;;8.60;99.90;;;;;;4987464;28;20517;-59
2023/10/28 02:52:14;;;;;;;49.45;17.48;;;8.60;99.90;;;;;;4970172;28;20083;-60
2023/10/28 02:54:42;;;;;;;44.35;15.57;;;8.60;99.90;;;;;;4981864;28;20054;-60
2023/10/28 02:57:10;;;;;;;51.90;17.15;;;8.60;99.90;;;;;;4973021;28;20054;-59
2023/10/28 02:59:38;;;;;;;50.53;16.58;;;8.60;99.90;;;;;;4983981;28;20039;-59
2023/10/28 03:02:06;;;;;;;39.05;16.10;;;8.60;99.90;;;;;;4993451;28;20054;-59
2023/10/28 03:04:34;;;;;;;43.50;16.00;;;8.60;99.90;;;;;;5010802;28;20053;-58
2023/10/28 03:07:02;;;;;;;36.72;15.32;;;8.60;99.90;;;;;;4990154;28;20427;-59
2023/10/28 03:09:30;;;;;;;36.65;15.98;;;8.70;99.90;;;;;;4988881;28;20042;-59
2023/10/28 03:11:58;;;;;;;39.97;16.20;;;8.60;99.90;;;;;;4995290;28;20409;-59
2023/10/28 03:14:26;;;;;;;40.70;16.30;;;8.70;99.90;;;;;;4995463;28;20038;-60
2023/10/28 03:16:53;;;;;;;46.08;15.75;;;8.60;99.90;;;;;;4989889;28;20039;-59
2023/10/28 03:19:21;;;;;;;53.55;18.00;;;8.70;99.90;;;;;;4991294;28;20046;-59
2023/10/28 03:21:49;;;;;;;47.08;17.70;;;8.70;99.90;;;;;;4994791;28;20051;-59
2023/10/28 03:24:16;;;;;;;45.30;17.40;;;8.60;99.90;;;;;;4993187;28;20050;-59
2023/10/28 03:26:45;;;;;;;48.47;15.55;;;8.60;99.90;;;;;;4981323;28;20058;-59
2023/10/28 03:29:13;;;;;;;41.75;16.90;;;8.60;99.90;;;;;;5005392;28;20050;-59
2023/10/28 03:31:41;;;;;;;48.15;16.75;;;8.60;99.90;;;;;;5011905;28;20715;-59
2023/10/28 03:34:09;;;;;;;47.20;18.33;;;8.60;99.90;;;;;;4979254;28;20491;-59
2023/10/28 03:36:36;;;;;;;45.53;16.83;;;8.60;99.90;;;;;;4979168;28;20043;-59
2023/10/28 03:39:04;;;;;;;40.40;16.35;;;8.50;99.90;;;;;;4975511;28;20051;-58
2023/10/28 03:41:32;;;;;;;42.08;15.90;;;8.60;99.90;;;;;;4974629;28;20050;-59
2023/10/28 03:44:01;;;;;;;51.08;16.05;;;8.50;99.90;;;;;;4978972;28;20053;-59
2023/10/28 03:46:28;;;;;;;43.28;16.95;;;8.50;99.90;;;;;;4975626;28;20062;-59
2023/10/28 03:48:56;;;;;;;49.35;16.45;;;8.50;99.90;;;;;;4990464;28;20049;-60
2023/10/28 03:51:24;;;;;;;44.97;15.90;;;8.50;99.90;;;;;;4985879;28;20043;-59
2023/10/28 03:53:51;;;;;;;56.53;18.40;;;8.50;99.90;;;;;;4992727;28;20053;-60
2023/10/28 03:56:19;;;;;;;49.88;18.27;;;8.50;99.90;;;;;;4986629;28;20046;-60
2023/10/28 03:58:46;;;;;;;54.70;17.05;;;8.50;99.90;;;;;;4979087;28;20046;-60
2023/10/28 04:01:15;;;;;;;54.72;17.67;;;8.50;99.90;;;;;;4974787;28;20047;-59
2023/10/28 04:03:43;;;;;;;46.15;18.02;;;8.50;99.90;;;;;;4985108;28;20049;-59
2023/10/28 04:06:11;;;;;;;53.30;18.50;;;8.50;99.90;;;;;;5008638;28;20045;-60
2023/10/28 04:08:38;;;;;;;53.60;17.75;;;8.50;99.90;;;;;;5012692;28;20050;-60
2023/10/28 04:11:06;;;;;;;57.22;17.20;;;8.50;99.90;;;;;;4993530;28;20629;-60
2023/10/28 04:13:34;;;;;;;52.78;16.23;;;8.50;99.90;;;;;;4990421;28;20046;-59
2023/10/28 04:16:02;;;;;;;56.70;17.33;;;8.50;99.90;;;;;;4973652;28;20047;-59
2023/10/28 04:18:29;;;;;;;51.17;16.13;;;8.50;99.90;;;;;;4984358;28;20050;-59
2023/10/28 04:20:57;;;;;;;56.22;16.95;;;8.50;99.90;;;;;;4994021;28;20058;-59
2023/10/28 04:23:24;;;;;;;47.95;15.98;;;8.50;99.90;;;;;;4983216;28;20046;-59
2023/10/28 04:25:52;;;;;;;57.72;17.05;;;8.40;99.90;;;;;;4974645;28;20491;-59
2023/10/28 04:28:20;;;;;;;45.22;15.55;;;8.40;99.90;;;;;;4973036;28;20055;-60
2023/10/28 04:30:55;;;;;;;54.92;15.50;;;8.40;99.90;;;;;;4980004;28;20050;-59
2023/10/28 04:33:26;;;;;;;60.70;17.23;;;8.50;99.90;;;;;;4986236;28;20050;-60
2023/10/28 04:35:55;;;;;;;54.80;16.45;;;8.40;99.90;;;;;;4986054;28;20077;-60
2023/10/28 04:38:22;;;;;;;50.03;16.40;;;8.40;99.90;;;;;;4974183;28;20050;-58
2023/10/28 04:40:50;;;;;;;60.42;17.02;;;8.40;99.90;;;;;;4973890;28;20038;-59
2023/10/28 04:43:21;;;;;;;51.33;16.17;;;8.50;99.90;;;;;;4975693;28;20061;-58
2023/10/28 04:45:50;;;;;;;60.30;16.52;;;8.50;99.90;;;;;;4975671;28;20527;-59
2023/10/28 04:48:18;;;;;;;54.10;16.60;;;8.50;99.90;;;;;;4977235;28;20474;-59
2023/10/28 04:50:47;;;;;;;50.67;16.17;;;8.40;99.90;;;;;;4985853;28;20050;-59
2023/10/28 04:53:15;;;;;;;59.35;16.88;;;8.50;99.90;;;;;;4979689;28;20073;-59
2023/10/28 04:55:44;;;;;;;49.70;17.23;;;8.50;99.90;;;;;;4986834;28;20057;-59
2023/10/28 04:58:12;;;;;;;57.65;16.77;;;8.40;99.90;;;;;;4974734;28;20486;-59
2023/10/28 05:00:40;;;;;;;56.33;17.40;;;8.40;99.90;;;;;;4998609;28;20057;-59
2023/10/28 05:03:08;;;;;;;58.25;17.08;;;8.40;99.90;;;;;;4985049;28;20050;-59
2023/10/28 05:05:37;;;;;;;58.42;16.55;;;8.50;99.90;;;;;;4971398;28;20054;-59
2023/10/28 05:08:05;;;;;;;62.95;19.10;;;8.50;99.90;;;;;;4979492;28;20039;-58
2023/10/28 05:10:33;;;;;;;55.75;17.08;;;8.50;99.90;;;;;;4974596;28;20871;-58
2023/10/28 05:13:00;;;;;;;66.75;17.83;;;8.50;99.90;;;;;;4977408;28;20069;-60
2023/10/28 05:15:28;;;;;;;66.40;16.95;;;8.50;99.90;;;;;;4984832;28;20058;-58
2023/10/28 05:17:56;;;;;;;54.95;16.50;;;8.50;99.90;;;;;;4978431;28;20043;-59
2023/10/28 05:20:24;;;;;;;63.53;18.65;;;8.50;99.90;;;;;;4989345;28;20586;-60
2023/10/28 05:22:52;;;;;;;64.15;17.45;;;8.50;99.90;;;;;;4979436;28;20398;-59
2023/10/28 05:25:20;;;;;;;55.72;16.25;;;8.50;99.90;;;;;;4989615;28;20061;-59
2023/10/28 05:27:49;;;;;;;50.83;16.42;;;8.50;99.90;;;;;;4986890;28;20058;-58
2023/10/28 05:30:17;;;;;;;48.93;14.13;;;8.60;99.90;;;;;;4985850;28;20050;-59
2023/10/28 05:32:45;;;;;;;54.20;16.80;;;8.60;99.90;;;;;;4974632;28;20038;-60
2023/10/28 05:35:13;;;;;;;46.88;14.75;;;8.60;99.90;;;;;;4979879;28;20050;-60
2023/10/28 05:37:41;;;;;;;51.22;15.40;;;8.60;99.90;;;;;;4982109;28;20058;-60
2023/10/28 05:40:10;;;;;;;52.85;16.75;;;8.60;99.90;;;;;;4980673;28;20046;-59
2023/10/28 05:42:37;;;;;;;51.63;16.08;;;8.70;99.90;;;;;;4982351;28;20051;-60
2023/10/28 05:45:07;;;;;;;49.72;15.18;;;8.60;99.90;;;;;;4984023;28;20058;-59
2023/10/28 05:47:35;;;;;;;49.13;14.40;;;8.70;99.90;;;;;;4985401;28;20050;-57
2023/10/28 05:50:05;;;;;;;50.03;14.82;;;8.70;99.90;;;;;;4980505;28;20410;-58
2023/10/28 05:52:34;;;;;;;55.95;16.05;;;8.70;99.90;;;;;;4978761;28;20226;-58
2023/10/28 05:55:02;;;;;;;55.42;14.73;;;8.70;99.90;;;;;;4972384;28;20050;-58
2023/10/28 05:57:31;;;;;;;51.38;15.77;;;8.70;99.90;;;;;;4980666;28;20465;-58
2023/10/28 05:59:58;;;;;;;52.53;14.98;;;8.70;99.90;;;;;;4968784;28;20528;-58
2023/10/28 06:02:26;;;;;;;47.58;14.68;;;8.80;99.90;;;;;;4983354;28;20046;-58
2023/10/28 06:04:54;;;;;;;54.63;15.25;;;8.80;99.90;;;;;;4986568;28;20945;-57
2023/10/28 06:07:21;;;;;;;46.17;14.60;;;8.80;99.90;;;;;;5003940;28;20379;-58
2023/10/28 06:09:49;;;;;;;51.22;15.30;;;8.80;99.90;;;;;;4987837;28;20042;-57
2023/10/28 06:12:17;;;;;;;50.65;15.13;;;8.80;99.90;;;;;;4985146;28;20046;-58
2023/10/28 06:14:45;;;;;;;51.25;15.95;;;8.80;99.90;;;;;;4969805;28;20045;-57
2023/10/28 06:17:13;;;;;;;56.08;15.63;;;8.80;99.90;;;;;;4988893;28;20061;-57
2023/10/28 06:19:41;;;;;;;49.90;15.38;;;8.90;99.90;;;;;;4977643;28;20073;-58
2023/10/28 06:22:11;;;;;;;60.58;17.35;;;8.80;99.90;;;;;;4977194;28;20078;-58
2023/10/28 06:24:39;;;;;;;48.03;15.40;;;8.90;99.90;;;;;;4987939;28;20386;-57
2023/10/28 06:27:08;;;;;;;63.10;16.13;;;8.90;99.90;;;;;;4988601;28;20054;-58
2023/10/28 06:29:37;;;;;;;52.03;16.13;;;8.90;99.90;;;;;;4984961;28;20546;-58
2023/10/28 06:32:06;;;;;;;63.37;14.73;;;8.90;99.90;;;;;;4970457;28;20058;-58
2023/10/28 06:34:34;;;;;;;50.33;14.50;;;8.90;99.90;;;;;;4968609;28;20483;-58
2023/10/28 06:37:02;;;;;;;57.35;15.07;;;8.90;99.90;;;;;;4985767;28;20043;-58
2023/10/28 06:39:34;;;;;;;50.00;15.88;;;8.90;99.90;;;;;;4968887;28;20051;-60
2023/10/28 06:42:04;;;;;;;44.40;14.68;;;8.90;99.90;;;;;;4973830;28;20054;-59
2023/10/28 06:44:35;;;;;;;48.53;14.82;;;8.90;99.90;;;;;;4987010;28;20061;-58
2023/10/28 06:47:03;;;;;;;50.03;14.18;;;9.00;99.90;;;;;;4985358;28;20053;-60
2023/10/28 06:49:33;;;;;;;39.67;13.18;;;8.90;99.90;;;;;;4979491;28;20058;-60
2023/10/28 06:52:01;;;;;;;50.72;13.82;;;8.90;99.90;;;;;;4971111;28;20039;-58
2023/10/28 06:54:29;;;;;;;45.78;13.73;;;8.90;99.90;;;;;;4987851;28;20046;-59
2023/10/28 06:56:57;;;;;;;43.50;13.23;;;9.00;99.90;;;;;;4988635;28;20058;-59
2023/10/28 06:59:25;;;;;;;41.20;13.38;;;9.00;99.90;;;;;;4983964;28;20513;-59
2023/10/28 07:01:54;;;;;;;40.97;12.63;;;9.00;99.90;;;;;;4983525;28;20051;-58
2023/10/28 07:04:22;;;;;;;36.45;12.73;;;9.00;99.90;;;;;;4986648;28;20051;-59
2023/10/28 07:06:50;;;;;;;32.13;11.15;;;9.00;99.90;;;;;;4968051;28;20039;-60
2023/10/28 07:09:18;;;;;;;31.08;10.57;;;9.10;99.90;;;;;;4970457;28;20055;-60
2023/10/28 07:11:45;;;;;;;29.25;11.23;;;8.90;99.90;;;;;;4984232;28;20401;-59
2023/10/28 07:14:13;;;;;;;27.75;10.00;;;9.00;99.90;;;;;;4985155;28;20061;-59
2023/10/28 07:16:41;;;;;;;25.63;10.43;;;9.00;99.90;;;;;;4973099;28;20568;-60
2023/10/28 07:19:09;;;;;;;32.80;10.32;;;9.10;99.90;;;;;;4977164;28;20047;-59
2023/10/28 07:21:37;;;;;;;28.27;10.80;;;9.10;99.90;;;;;;4974317;28;20039;-59
2023/10/28 07:24:11;;;;;;;30.98;10.32;;;9.10;99.90;;;;;;4985859;28;20062;-60
2023/10/28 07:26:39;;;;;;;25.70;10.07;;;9.10;99.90;;;;;;4983185;28;20051;-59
2023/10/28 07:29:08;;;;;;;28.45;10.35;;;9.10;99.90;;;;;;4991419;28;20046;-59
2023/10/28 07:31:38;;;;;;;27.20;10.18;;;9.20;99.90;;;;;;4991350;28;20042;-59
2023/10/28 07:34:07;;;;;;;27.13;10.77;;;9.20;99.90;;;;;;4991537;28;20406;-59
2023/10/28 07:36:35;;;;;;;26.70;10.07;;;9.20;99.90;;;;;;4986755;28;20046;-60
2023/10/28 07:39:03;;;;;;;33.97;10.90;;;9.20;99.90;;;;;;4984322;28;20038;-58
2023/10/28 07:41:31;;;;;;;24.73;10.27;;;9.20;99.90;;;;;;4955105;28;20061;-58
2023/10/28 07:43:58;;;;;;;25.67;10.65;;;9.20;99.90;;;;;;4971335;28;20395;-58
2023/10/28 07:46:26;;;;;;;29.33;10.15;;;9.30;99.90;;;;;;4973197;28;20054;-58
2023/10/28 07:48:54;;;;;;;28.48;10.80;;;9.30;99.90;;;;;;4989521;28;20513;-59
2023/10/28 07:51:21;;;;;;;30.90;10.25;;;9.40;99.90;;;;;;4991151;28;20066;-58
2023/10/28 07:53:50;;;;;;;32.15;12.20;;;9.40;99.90;;;;;;4990681;28;20043;-59
2023/10/28 07:56:19;;;;;;;29.33;10.90;;;9.40;99.90;;;;;;4991348;28;20061;-58
2023/10/28 07:58:50;;;;;;;32.15;11.05;;;9.50;99.90;;;;;;4990199;28;20042;-58
2023/10/28 08:01:18;;;;;;;26.48;10.23;;;9.50;99.90;;;;;;4988659;28;20053;-58
2023/10/28 08:03:46;;;;;;;30.88;11.50;;;9.60;99.90;;;;;;4983927;28;20050;-59
2023/10/28 08:06:14;;;;;;;29.73;10.38;;;9.70;99.90;;;;;;4987978;28;20054;-59
2023/10/28 08:09:05;;;;;;;26.58;10.38;;;9.70;99.90;;;;;;4990278;28;20050;-59
2023/10/28 08:11:33;;;;;;;25.35;10.82;;;9.70;99.90;;;;;;4990145;28;20054;-59
2023/10/28 08:14:03;;;;;;;28.83;10.88;;;9.80;99.90;;;;;;4981145;28;20047;-59
2023/10/28 08:16:34;;;;;;;26.95;11.38;;;9.80;99.90;;;;;;4971682;28;20410;-59
2023/10/28 08:19:03;;;;;;;28.55;10.98;;;9.90;99.90;;;;;;4986704;28;20069;-59
2023/10/28 08:21:32;;;;;;;26.42;10.63;;;9.90;99.90;;;;;;4990329;28;20057;-59
2023/10/28 08:24:00;;;;;;;27.20;10.23;;;9.90;99.90;;;;;;4982400;28;20060;-59
2023/10/28 08:26:28;;;;;;;29.58;10.80;;;9.90;99.90;;;;;;4990669;28;20050;-59
2023/10/28 08:28:56;;;;;;;32.70;10.38;;;9.90;99.90;;;;;;4983198;28;20059;-60
2023/10/28 08:31:23;;;;;;;27.27;9.82;;;9.90;99.90;;;;;;4975397;28;20118;-59
2023/10/28 08:33:52;;;;;;;20.60;9.38;;;9.90;99.90;;;;;;4989258;28;20042;-58
2023/10/28 08:36:20;;;;;;;26.02;10.75;;;9.90;99.90;;;;;;4990289;28;20053;-60
2023/10/28 08:38:47;;;;;;;20.60;10.48;;;9.90;99.90;;;;;;4990400;28;20047;-58
2023/10/28 08:41:21;;;;;;;25.55;10.23;;;9.90;99.90;;;;;;4990596;28;20413;-59
2023/10/28 08:43:50;;;;;;;27.10;10.23;;;10.00;99.90;;;;;;4985106;28;20050;-59
2023/10/28 08:46:18;;;;;;;28.20;10.52;;;10.00;99.90;;;;;;4969803;28;20058;-58
2023/10/28 08:48:46;;;;;;;26.90;10.55;;;10.00;99.90;;;;;;4984982;28;20419;-60
2023/10/28 08:51:14;;;;;;;27.83;10.10;;;10.10;99.90;;;;;;4969956;28;20054;-59
2023/10/28 08:53:45;;;;;;;23.83;9.80;;;10.10;99.90;;;;;;4979966;28;20062;-59
2023/10/28 08:56:19;;;;;;;25.17;9.75;;;10.10;99.90;;;;;;4989449;28;20065;-59
2023/10/28 08:58:50;;;;;;;25.25;9.60;;;10.10;99.90;;;;;;4986084;28;20047;-59
2023/10/28 09:01:27;;;;;;;24.45;10.07;;;10.20;99.90;;;;;;4970831;28;20518;-59
2023/10/28 09:03:58;;;;;;;27.45;9.18;;;10.20;99.90;;;;;;4998020;28;20047;-60
2023/10/28 09:06:26;;;;;;;18.92;8.38;;;10.20;99.90;;;;;;4988854;28;20061;-59
2023/10/28 09:08:55;;;;;;;21.77;8.90;;;10.30;99.90;;;;;;4989522;28;20700;-58
2023/10/28 09:11:23;;;;;;;28.20;8.98;;;10.30;99.90;;;;;;4986016;28;20057;-60
2023/10/28 09:13:52;;;;;;;20.48;8.30;;;10.40;99.90;;;;;;4971728;28;20042;-59
2023/10/28 09:16:19;;;;;;;20.83;8.27;;;10.40;99.90;;;;;;4980132;28;20043;-59
2023/10/28 09:18:49;;;;;;;17.55;6.75;;;10.50;99.90;;;;;;4983153;28;20402;-59
2023/10/28 09:21:19;;;;;;;22.02;7.55;;;10.50;99.90;;;;;;4987455;28;20046;-58
2023/10/28 09:23:46;;;;;;;18.92;7.03;;;10.60;99.90;;;;;;4979139;28;20057;-60
2023/10/28 09:26:14;;;;;;;16.30;7.22;;;10.60;99.90;;;;;;4985869;28;20053;-59
2023/10/28 09:28:44;;;;;;;14.00;5.97;;;10.70;99.90;;;;;;4986141;28;20054;-59
2023/10/28 09:31:12;;;;;;;19.10;6.70;;;10.70;99.90;;;;;;4982719;28;20046;-59
2023/10/28 09:33:40;;;;;;;18.75;5.53;;;10.70;99.90;;;;;;4978624;28;20398;-59
2023/10/28 09:36:08;;;;;;;15.68;5.82;;;10.70;99.90;;;;;;4986992;28;20410;-58
2023/10/28 09:38:38;;;;;;;14.00;5.40;;;10.70;99.90;;;;;;4987631;28;20526;-59
2023/10/28 09:41:08;;;;;;;;;;;10.70;99.90;;;;;;4988334;28;20054;-59
2023/10/28 09:43:37;;;;;;;15.77;4.72;;;10.70;99.90;;;;;;4986662;28;19922;-59
2023/10/28 09:46:06;;;;;;;11.77;4.20;;;10.70;99.90;;;;;;4984802;28;20050;-58
2023/10/28 09:48:38;;;;;;;13.07;4.85;;;10.80;99.90;;;;;;4988529;28;20487;-58
2023/10/28 09:51:07;;;;;;;9.73;3.92;;;10.80;99.90;;;;;;4988676;28;20498;-59
2023/10/28 09:53:38;;;;;;;12.15;4.30;;;10.90;99.90;;;;;;4974620;28;20043;-58
2023/10/28 09:56:06;;;;;;;8.13;3.33;;;10.90;99.90;;;;;;4969812;28;20391;-59
2023/10/28 09:58:43;;;;;;;15.77;4.05;;;10.90;99.90;;;;;;4984630;28;20517;-58
2023/10/28 10:01:29;;;;;;;14.70;4.20;;;11.00;99.90;;;;;;4978178;28;20050;-58
2023/10/28 10:03:56;;;;;;;11.30;3.70;;;11.00;99.90;;;;;;4972908;28;20648;-58
2023/10/28 10:06:25;;;;;;;13.43;3.75;;;11.00;99.90;;;;;;4969017;28;20047;-58
2023/10/28 10:08:55;;;;;;;8.88;4.03;;;11.00;99.90;;;;;;4988909;28;20126;-58
2023/10/28 10:11:24;;;;;;;11.00;4.20;;;11.10;99.90;;;;;;4988900;28;20046;-58
2023/10/28 10:13:55;;;;;;;13.93;3.63;;;11.20;99.90;;;;;;4983279;28;20078;-59
2023/10/28 10:16:34;;;;;;;11.90;3.97;;;11.20;99.90;;;;;;4988703;28;20057;-59
2023/10/28 10:19:10;;;;;;;10.85;4.03;;;11.30;99.90;;;;;;4988834;28;20058;-58
2023/10/28 10:21:47;;;;;;;13.23;3.83;;;11.40;99.90;;;;;;4988607;28;20046;-58
2023/10/28 10:24:17;;;;;;;9.57;3.50;;;11.50;99.90;;;;;;4987815;28;20054;-58
2023/10/28 10:26:52;;;;;;;;;;;11.60;99.90;;;;;;4989279;28;20051;-58
2023/10/28 10:29:20;;;;;;;8.43;3.67;;;11.60;99.90;;;;;;4985670;28;19929;-58
2023/10/28 10:31:51;;;;;;;10.95;3.97;;;11.50;99.90;;;;;;4968999;28;20062;-58
2023/10/28 10:34:39;;;;;;;10.90;4.10;;;11.50;99.90;;;;;;4983445;28;20050;-58
2023/10/28 10:37:09;;;;;;;9.40;4.03;;;11.50;99.90;;;;;;4983125;28;20491;-58
2023/10/28 10:39:43;;;;;;;;;;;11.60;99.90;;;;;;4969896;28;20051;-58
2023/10/28 10:42:15;;;;;;;11.02;3.85;;;11.60;99.90;;;;;;4974035;28;19923;-58
2023/10/28 10:44:42;;;;;;;12.73;4.10;;;11.60;99.90;;;;;;4983421;28;20035;-58
2023/10/28 10:47:11;;;;;;;24.90;4.20;;;11.60;99.90;;;;;;4987687;28;20059;-58
2023/10/28 10:49:40;;;;;;;15.77;3.33;;;11.60;99.90;;;;;;4988342;28;20050;-59
2023/10/28 10:52:09;;;;;;;8.27;3.28;;;11.60;99.90;;;;;;4984223;28;20066;-59
2023/10/28 10:54:38;;;;;;;11.52;3.72;;;11.60;99.90;;;;;;4984887;28;20054;-59
2023/10/28 10:57:07;;;;;;;;;;;11.60;99.90;;;;;;4988409;28;20051;-58
2023/10/28 10:59:36;;;;;;;13.43;3.10;;;11.60;99.90;;;;;;4985531;28;20293;-59
2023/10/28 11:02:04;;;;;;;8.27;3.77;;;11.50;99.90;;;;;;4982977;28;20518;-58
2023/10/28 11:04:34;;;;;;;12.20;3.15;;;11.50;99.90;;;;;;4985035;28;20406;-59
2023/10/28 11:07:03;;;;;;;19.45;4.07;;;11.50;99.90;;;;;;4988477;28;20050;-57
2023/10/28 11:09:32;;;;;;;14.60;3.58;;;11.50;99.90;;;;;;4988468;28;20038;-58
2023/10/28 11:12:00;;;;;;;13.30;3.08;;;11.50;99.90;;;;;;4988062;28;20061;-58
2023/10/28 11:14:28;;;;;;;17.83;4.28;;;11.50;99.90;;;;;;4982482;28;20541;-58
2023/10/28 11:16:56;;;;;;;17.05;4.55;;;11.50;99.90;;;;;;4987770;28;20050;-57
2023/10/28 11:19:24;;;;;;;14.50;4.05;;;11.60;99.90;;;;;;4986927;28;20434;-59
2023/10/28 11:21:54;;;;;;;15.88;4.45;;;11.60;99.90;;;;;;4988690;28;20054;-58
2023/10/28 11:24:22;;;;;;;20.80;4.18;;;11.60;99.90;;;;;;4986657;28;20046;-57
2023/10/28 11:26:50;;;;;;;13.25;4.47;;;11.70;99.90;;;;;;4991417;28;20050;-58
2023/10/28 11:29:29;;;;;;;18.05;3.22;;;11.70;99.90;;;;;;4991600;28;20421;-58
2023/10/28 11:32:04;;;;;;;;;;;11.70;99.90;;;;;;4975030;28;20057;-58
2023/10/28 11:34:41;;;;;;;13.85;4.07;;;11.70;99.90;;;;;;4987029;28;19929;-57
2023/10/28 11:37:10;;;;;;;12.95;3.15;;;11.70;99.90;;;;;;4990713;28;20050;-58
2023/10/28 11:39:44;;;;;;;10.32;3.13;;;11.70;99.90;;;;;;4990852;28;20058;-58
2023/10/28 11:42:15;;;;;;;16.13;3.58;;;11.80;99.90;;;;;;4991484;28;20049;-58
2023/10/28 11:44:49;;;;;;;6.53;2.70;;;11.90;99.90;;;;;;4988618;28;20054;-58
2023/10/28 11:47:19;;;;;;;13.88;3.25;;;12.00;99.90;;;;;;4973417;28;20047;-59
2023/10/28 11:49:47;;;;;;;12.57;2.88;;;12.10;99.90;;;;;;4988611;28;20506;-59
2023/10/28 11:52:15;;;;;;;6.20;2.63;;;12.20;99.90;;;;;;4991731;28;20053;-59
2023/10/28 11:54:43;;;;;;;11.63;2.70;;;12.20;99.90;;;;;;4980730;28;20043;-59
2023/10/28 11:57:11;;;;;;;9.43;2.55;;;12.30;99.90;;;;;;4976576;28;20045;-59
2023/10/28 11:59:40;;;;;;;14.50;3.13;;;12.30;99.90;;;;;;4970775;28;20046;-59
2023/10/28 12:02:08;;;;;;;14.20;2.95;;;12.30;99.90;;;;;;4981684;28;20051;-58
2023/10/28 12:04:35;;;;;;;12.75;2.35;;;12.40;99.90;;;;;;4987439;28;20061;-59
2023/10/28 12:07:03;;;;;;;14.55;2.50;;;12.40;99.90;;;;;;4989969;28;20046;-58
2023/10/28 12:09:35;;;;;;;13.07;2.97;;;12.50;99.90;;;;;;4990387;28;20486;-58
2023/10/28 12:12:06;;;;;;;13.35;3.00;;;12.60;99.90;;;;;;4991446;28;20054;-58
2023/10/28 12:14:34;;;;;;;9.10;1.80;;;12.60;99.90;;;;;;4989322;28;20055;-58
2023/10/28 12:17:01;;;;;;;11.52;2.72;;;12.50;99.90;;;;;;4989115;28;20038;-58
2023/10/28 12:19:29;;;;;;;9.75;2.50;;;12.50;99.90;;;;;;4990752;28;20070;-59
2023/10/28 12:21:57;;;;;;;7.95;2.22;;;12.50;99.90;;;;;;4990580;28;20046;-58
2023/10/28 12:24:25;;;;;;;9.10;2.55;;;12.60;99.90;;;;;;4983859;28;20061;-57
2023/10/28 12:26:53;;;;;;;8.23;2.00;;;12.80;99.90;;;;;;4972795;28;20053;-58
2023/10/28 12:29:21;;;;;;;5.38;1.75;;;13.00;99.90;;;;;;4989085;28;20046;-57
2023/10/28 12:31:49;;;;;;;7.90;1.75;;;13.10;99.90;;;;;;4985439;28;20051;-57
2023/10/28 12:34:17;;;;;;;6.40;1.50;;;13.30;99.90;;;;;;4978347;28;20058;-58
2023/10/28 12:36:47;;;;;;;6.68;0.90;;;13.40;99.90;;;;;;4982344;28;20259;-58
2023/10/28 12:39:16;;;;;;;7.35;1.25;;;13.50;99.90;;;;;;4986254;28;20414;-57
2023/10/28 12:41:46;;;;;;;5.00;1.05;;;13.60;99.90;;;;;;4987298;28;20054;-58
2023/10/28 12:44:14;;;;;;;6.53;1.20;;;13.70;99.90;;;;;;4985078;28;20379;-57
2023/10/28 12:46:41;;;;;;;5.78;1.27;;;13.80;99.90;;;;;;4974801;28;20058;-58